sensor_id;sensor_type;location;lat;lon;timestamp;pressure;altitude;pressure_sealevel;temperature;humidity
8160;BME280;27404;52.398;9.646;2023-03-16T00:01:03;101340.41;;;-3.72;100.00
8160;BME280;27404;52.398;9.646;2023-03-16T00:03:29;101341.13;;;-3.70;100.00
8160;BME280;27404;52.398;9.646;2023-03-16T00:05:54;101343.66;;;-3.68;100.00
8160;BME280;27404;52.398;9.646;2023-03-16T00:08:20;101338.81;;;-3.63;100.00
8160;BME280;27404;52.398;9.646;2023-03-16T00:10:46;101347.78;;;-3.64;100.00
8160;BME280;27404;52.398;9.646;2023-03-16T00:13:16;101338.22;;;-3.67;100.00
8160;BME280;27404;52.398;9.646;2023-03-16T00:15:59;101339.78;;;-3.64;100.00
8160;BME280;27404;52.398;9.646;2023-03-16T00:18:27;101336.03;;;-3.73;100.00
8160;BME280;27404;52.398;9.646;2023-03-16T00:20:55;101340.91;;;-3.78;100.00
8160;BME280;27404;52.398;9.646;2023-03-16T00:23:22;101347.31;;;-3.81;100.00
8160;BME280;27404;52.398;9.646;2023-03-16T00:25:55;101344.56;;;-3.79;100.00
8160;BME280;27404;52.398;9.646;2023-03-16T00:28:21;101347.22;;;-3.79;100.00
8160;BME280;27404;52.398;9.646;2023-03-16T00:30:47;101340.03;;;-3.79;100.00
8160;BME280;27404;52.398;9.646;2023-03-16T00:33:13;101336.41;;;-3.78;100.00
8160;BME280;27404;52.398;9.646;2023-03-16T00:35:38;101337.00;;;-3.74;100.00
8160;BME280;27404;52.398;9.646;2023-03-16T00:38:03;101341.50;;;-3.75;100.00
8160;BME280;27404;52.398;9.646;2023-03-16T00:40:29;101338.66;;;-3.62;100.00
8160;BME280;27404;52.398;9.646;2023-03-16T00:42:55;101338.03;;;-3.43;100.00
8160;BME280;27404;52.398;9.646;2023-03-16T00:45:21;101334.22;;;-3.40;100.00
8160;BME280;27404;52.398;9.646;2023-03-16T00:47:48;101335.44;;;-3.33;100.00
8160;BME280;27404;52.398;9.646;2023-03-16T00:50:13;101331.75;;;-3.20;100.00
8160;BME280;27404;52.398;9.646;2023-03-16T00:52:40;101326.97;;;-3.17;100.00
8160;BME280;27404;52.398;9.646;2023-03-16T00:55:07;101332.56;;;-3.20;100.00
8160;BME280;27404;52.398;9.646;2023-03-16T00:57:32;101327.38;;;-3.00;100.00
8160;BME280;27404;52.398;9.646;2023-03-16T00:59:58;101332.22;;;-2.94;100.00
8160;BME280;27404;52.398;9.646;2023-03-16T01:02:24;101329.22;;;-3.01;100.00
8160;BME280;27404;52.398;9.646;2023-03-16T01:04:50;101323.41;;;-3.06;100.00
8160;BME280;27404;52.398;9.646;2023-03-16T01:07:16;101323.72;;;-2.99;100.00
8160;BME280;27404;52.398;9.646;2023-03-16T01:09:42;101327.28;;;-2.99;100.00
8160;BME280;27404;52.398;9.646;2023-03-16T01:12:13;101327.13;;;-2.97;100.00
8160;BME280;27404;52.398;9.646;2023-03-16T01:14:40;101332.53;;;-3.08;100.00
8160;BME280;27404;52.398;9.646;2023-03-16T01:17:07;101327.44;;;-3.12;100.00
8160;BME280;27404;52.398;9.646;2023-03-16T01:19:34;101320.78;;;-3.17;100.00
8160;BME280;27404;52.398;9.646;2023-03-16T01:22:06;101318.38;;;-3.20;100.00
8160;BME280;27404;52.398;9.646;2023-03-16T01:24:34;101318.75;;;-3.25;100.00
8160;BME280;27404;52.398;9.646;2023-03-16T01:27:00;101313.84;;;-3.20;100.00
8160;BME280;27404;52.398;9.646;2023-03-16T01:29:25;101302.91;;;-3.17;100.00
8160;BME280;27404;52.398;9.646;2023-03-16T01:31:51;101305.94;;;-3.10;100.00
8160;BME280;27404;52.398;9.646;2023-03-16T01:34:16;101308.34;;;-3.07;100.00
8160;BME280;27404;52.398;9.646;2023-03-16T01:36:45;101311.34;;;-3.00;100.00
8160;BME280;27404;52.398;9.646;2023-03-16T01:39:11;101310.03;;;-3.06;100.00
8160;BME280;27404;52.398;9.646;2023-03-16T01:41:37;101311.75;;;-3.05;100.00
8160;BME280;27404;52.398;9.646;2023-03-16T01:44:04;101308.66;;;-3.00;100.00
8160;BME280;27404;52.398;9.646;2023-03-16T01:46:30;101309.78;;;-3.03;100.00
8160;BME280;27404;52.398;9.646;2023-03-16T01:51:24;101308.59;;;-2.89;100.00
8160;BME280;27404;52.398;9.646;2023-03-16T01:54:00;101312.31;;;-2.80;100.00
8160;BME280;27404;52.398;9.646;2023-03-16T01:56:37;101314.72;;;-2.77;100.00
8160;BME280;27404;52.398;9.646;2023-03-16T01:59:08;101301.81;;;-2.93;100.00
8160;BME280;27404;52.398;9.646;2023-03-16T02:01:36;101303.72;;;-2.84;100.00
8160;BME280;27404;52.398;9.646;2023-03-16T02:06:48;101317.25;;;-2.97;100.00
8160;BME280;27404;52.398;9.646;2023-03-16T02:09:15;101306.03;;;-3.12;100.00
8160;BME280;27404;52.398;9.646;2023-03-16T02:11:43;101301.91;;;-3.16;100.00
8160;BME280;27404;52.398;9.646;2023-03-16T02:14:10;101300.03;;;-3.25;100.00
8160;BME280;27404;52.398;9.646;2023-03-16T02:16:36;101301.72;;;-3.24;100.00
8160;BME280;27404;52.398;9.646;2023-03-16T02:19:02;101297.19;;;-3.12;100.00
8160;BME280;27404;52.398;9.646;2023-03-16T02:22:07;101299.00;;;-3.13;100.00
8160;BME280;27404;52.398;9.646;2023-03-16T02:24:35;101288.56;;;-3.16;100.00
8160;BME280;27404;52.398;9.646;2023-03-16T02:27:07;101287.78;;;-3.28;100.00
8160;BME280;27404;52.398;9.646;2023-03-16T02:29:55;101283.59;;;-3.20;100.00
8160;BME280;27404;52.398;9.646;2023-03-16T02:32:23;101273.69;;;-3.08;100.00
8160;BME280;27404;52.398;9.646;2023-03-16T02:34:49;101272.66;;;-3.17;100.00
8160;BME280;27404;52.398;9.646;2023-03-16T02:37:16;101280.94;;;-3.20;100.00
8160;BME280;27404;52.398;9.646;2023-03-16T02:39:41;101272.66;;;-3.17;100.00
8160;BME280;27404;52.398;9.646;2023-03-16T02:42:11;101269.06;;;-3.28;100.00
8160;BME280;27404;52.398;9.646;2023-03-16T02:44:37;101275.50;;;-3.30;100.00
8160;BME280;27404;52.398;9.646;2023-03-16T02:47:12;101261.44;;;-3.32;100.00
8160;BME280;27404;52.398;9.646;2023-03-16T02:49:42;101253.28;;;-3.31;100.00
8160;BME280;27404;52.398;9.646;2023-03-16T02:52:08;101259.84;;;-3.35;100.00
8160;BME280;27404;52.398;9.646;2023-03-16T02:54:34;101262.47;;;-3.23;100.00
8160;BME280;27404;52.398;9.646;2023-03-16T02:57:00;101256.00;;;-3.42;100.00
8160;BME280;27404;52.398;9.646;2023-03-16T02:59:25;101252.50;;;-3.43;100.00
8160;BME280;27404;52.398;9.646;2023-03-16T03:01:50;101257.25;;;-3.58;100.00
8160;BME280;27404;52.398;9.646;2023-03-16T03:04:16;101257.31;;;-3.36;100.00
8160;BME280;27404;52.398;9.646;2023-03-16T03:06:42;101253.31;;;-3.21;100.00
8160;BME280;27404;52.398;9.646;2023-03-16T03:09:08;101254.50;;;-3.35;100.00
8160;BME280;27404;52.398;9.646;2023-03-16T03:11:36;101262.47;;;-3.23;100.00
8160;BME280;27404;52.398;9.646;2023-03-16T03:14:02;101253.31;;;-3.42;100.00
8160;BME280;27404;52.398;9.646;2023-03-16T03:16:28;101253.38;;;-3.53;100.00
8160;BME280;27404;52.398;9.646;2023-03-16T03:18:53;101253.38;;;-3.53;100.00
8160;BME280;27404;52.398;9.646;2023-03-16T03:21:19;101248.66;;;-3.61;100.00
8160;BME280;27404;52.398;9.646;2023-03-16T03:23:45;101249.06;;;-3.66;100.00
8160;BME280;27404;52.398;9.646;2023-03-16T03:26:12;101249.75;;;-3.64;100.00
8160;BME280;27404;52.398;9.646;2023-03-16T03:28:39;101247.69;;;-3.60;100.00
8160;BME280;27404;52.398;9.646;2023-03-16T03:31:05;101261.44;;;-3.65;100.00
8160;BME280;27404;52.398;9.646;2023-03-16T03:33:30;101252.09;;;-3.70;100.00
8160;BME280;27404;52.398;9.646;2023-03-16T03:35:58;101261.69;;;-3.68;100.00
8160;BME280;27404;52.398;9.646;2023-03-16T03:38:25;101258.19;;;-3.80;100.00
8160;BME280;27404;52.398;9.646;2023-03-16T03:40:51;101260.28;;;-3.83;100.00
8160;BME280;27404;52.398;9.646;2023-03-16T03:43:17;101249.59;;;-3.83;100.00
8160;BME280;27404;52.398;9.646;2023-03-16T03:45:43;101254.69;;;-3.80;100.00
8160;BME280;27404;52.398;9.646;2023-03-16T03:48:09;101253.72;;;-3.79;100.00
8160;BME280;27404;52.398;9.646;2023-03-16T03:50:35;101255.06;;;-3.85;100.00
8160;BME280;27404;52.398;9.646;2023-03-16T03:53:03;101258.13;;;-3.90;100.00
8160;BME280;27404;52.398;9.646;2023-03-16T03:55:28;101259.41;;;-3.84;100.00
8160;BME280;27404;52.398;9.646;2023-03-16T03:57:53;101255.31;;;-3.88;100.00
8160;BME280;27404;52.398;9.646;2023-03-16T04:00:19;101263.91;;;-3.73;100.00
8160;BME280;27404;52.398;9.646;2023-03-16T04:02:46;101259.66;;;-3.87;100.00
8160;BME280;27404;52.398;9.646;2023-03-16T04:05:12;101260.28;;;-3.83;100.00
8160;BME280;27404;52.398;9.646;2023-03-16T04:07:37;101262.47;;;-3.77;100.00
8160;BME280;27404;52.398;9.646;2023-03-16T04:10:04;101269.50;;;-3.76;100.00
8160;BME280;27404;52.398;9.646;2023-03-16T04:12:30;101262.94;;;-3.72;100.00
8160;BME280;27404;52.398;9.646;2023-03-16T04:14:55;101259.94;;;-3.58;100.00
8160;BME280;27404;52.398;9.646;2023-03-16T04:17:21;101251.41;;;-3.51;100.00
8160;BME280;27404;52.398;9.646;2023-03-16T04:19:48;101256.00;;;-3.42;100.00
8160;BME280;27404;52.398;9.646;2023-03-16T04:22:13;101251.56;;;-3.32;100.00
8160;BME280;27404;52.398;9.646;2023-03-16T04:24:39;101247.72;;;-3.39;100.00
8160;BME280;27404;52.398;9.646;2023-03-16T04:27:04;101242.72;;;-3.32;100.00
8160;BME280;27404;52.398;9.646;2023-03-16T04:29:30;101238.91;;;-3.51;100.00
8160;BME280;27404;52.398;9.646;2023-03-16T04:31:56;101240.91;;;-3.64;100.00
8160;BME280;27404;52.398;9.646;2023-03-16T04:34:21;101247.56;;;-3.59;100.00
8160;BME280;27404;52.398;9.646;2023-03-16T04:36:52;101242.59;;;-3.63;100.00
8160;BME280;27404;52.398;9.646;2023-03-16T04:39:21;101238.88;;;-3.72;100.00
8160;BME280;27404;52.398;9.646;2023-03-16T04:41:46;101236.97;;;-3.81;100.00
8160;BME280;27404;52.398;9.646;2023-03-16T04:44:12;101238.41;;;-3.77;100.00
8160;BME280;27404;52.398;9.646;2023-03-16T04:46:38;101247.66;;;-3.81;100.00
8160;BME280;27404;52.398;9.646;2023-03-16T04:49:03;101246.28;;;-3.76;100.00
8160;BME280;27404;52.398;9.646;2023-03-16T04:51:29;101244.59;;;-3.77;100.00
8160;BME280;27404;52.398;9.646;2023-03-16T04:53:55;101241.91;;;-3.44;100.00
8160;BME280;27404;52.398;9.646;2023-03-16T04:56:21;101246.28;;;-3.43;100.00
8160;BME280;27404;52.398;9.646;2023-03-16T04:58:48;101242.97;;;-3.35;100.00
8160;BME280;27404;52.398;9.646;2023-03-16T05:01:15;101241.41;;;-3.38;100.00
8160;BME280;27404;52.398;9.646;2023-03-16T05:03:41;101247.19;;;-3.33;100.00
8160;BME280;27404;52.398;9.646;2023-03-16T05:06:08;101243.94;;;-3.36;100.00
8160;BME280;27404;52.398;9.646;2023-03-16T05:08:35;101247.25;;;-3.23;100.00
8160;BME280;27404;52.398;9.646;2023-03-16T05:11:00;101249.50;;;-3.07;100.00
8160;BME280;27404;52.398;9.646;2023-03-16T05:13:26;101245.19;;;-2.98;100.00
8160;BME280;27404;52.398;9.646;2023-03-16T05:15:51;101252.47;;;-3.00;100.00
8160;BME280;27404;52.398;9.646;2023-03-16T05:18:21;101259.31;;;-2.86;100.00
8160;BME280;27404;52.398;9.646;2023-03-16T05:20:51;101258.97;;;-2.72;100.00
8160;BME280;27404;52.398;9.646;2023-03-16T05:23:18;101255.72;;;-2.75;100.00
8160;BME280;27404;52.398;9.646;2023-03-16T05:25:45;101253.78;;;-2.73;100.00
8160;BME280;27404;52.398;9.646;2023-03-16T05:28:11;101249.13;;;-2.71;100.00
8160;BME280;27404;52.398;9.646;2023-03-16T05:30:36;101240.69;;;-2.66;100.00
8160;BME280;27404;52.398;9.646;2023-03-16T05:33:02;101236.78;;;-2.62;100.00
8160;BME280;27404;52.398;9.646;2023-03-16T05:35:28;101239.19;;;-2.59;100.00
8160;BME280;27404;52.398;9.646;2023-03-16T05:37:53;101227.50;;;-2.58;100.00
8160;BME280;27404;52.398;9.646;2023-03-16T05:40:18;101223.84;;;-2.47;100.00
8160;BME280;27404;52.398;9.646;2023-03-16T05:42:49;101226.97;;;-2.42;100.00
8160;BME280;27404;52.398;9.646;2023-03-16T05:45:18;101226.59;;;-2.38;100.00
8160;BME280;27404;52.398;9.646;2023-03-16T05:47:43;101233.78;;;-2.28;100.00
8160;BME280;27404;52.398;9.646;2023-03-16T05:50:10;101232.69;;;-2.16;100.00
8160;BME280;27404;52.398;9.646;2023-03-16T05:52:38;101219.19;;;-2.04;100.00
8160;BME280;27404;52.398;9.646;2023-03-16T05:55:04;101213.53;;;-1.91;100.00
8160;BME280;27404;52.398;9.646;2023-03-16T05:57:31;101208.34;;;-1.93;100.00
8160;BME280;27404;52.398;9.646;2023-03-16T05:59:58;101212.00;;;-1.84;100.00
8160;BME280;27404;52.398;9.646;2023-03-16T06:02:23;101212.47;;;-1.69;100.00
8160;BME280;27404;52.398;9.646;2023-03-16T06:04:49;101203.56;;;-1.50;100.00
8160;BME280;27404;52.398;9.646;2023-03-16T06:07:15;101217.50;;;-1.27;100.00
8160;BME280;27404;52.398;9.646;2023-03-16T06:09:41;101208.41;;;-0.96;100.00
8160;BME280;27404;52.398;9.646;2023-03-16T06:12:06;101204.84;;;-0.87;100.00
8160;BME280;27404;52.398;9.646;2023-03-16T06:14:32;101209.00;;;-0.65;100.00
8160;BME280;27404;52.398;9.646;2023-03-16T06:16:57;101206.13;;;-0.53;100.00
8160;BME280;27404;52.398;9.646;2023-03-16T06:19:22;101205.75;;;-0.40;100.00
8160;BME280;27404;52.398;9.646;2023-03-16T06:21:48;101208.94;;;-0.27;100.00
8160;BME280;27404;52.398;9.646;2023-03-16T06:24:13;101205.81;;;-0.22;100.00
8160;BME280;27404;52.398;9.646;2023-03-16T06:26:39;101207.78;;;-0.24;100.00
8160;BME280;27404;52.398;9.646;2023-03-16T06:29:05;101209.44;;;-0.13;100.00
8160;BME280;27404;52.398;9.646;2023-03-16T06:31:31;101214.06;;;-0.06;100.00
8160;BME280;27404;52.398;9.646;2023-03-16T06:33:59;101214.22;;;-0.07;100.00
8160;BME280;27404;52.398;9.646;2023-03-16T06:36:25;101216.53;;;0.06;100.00
8160;BME280;27404;52.398;9.646;2023-03-16T06:38:50;101217.75;;;0.11;100.00
8160;BME280;27404;52.398;9.646;2023-03-16T06:41:16;101219.69;;;0.19;100.00
8160;BME280;27404;52.398;9.646;2023-03-16T06:43:41;101228.53;;;0.29;100.00
8160;BME280;27404;52.398;9.646;2023-03-16T06:46:07;101220.38;;;0.39;100.00
8160;BME280;27404;52.398;9.646;2023-03-16T06:48:32;101216.25;;;0.71;100.00
8160;BME280;27404;52.398;9.646;2023-03-16T06:50:58;101220.41;;;0.84;100.00
8160;BME280;27404;52.398;9.646;2023-03-16T06:53:23;101228.03;;;0.88;100.00
8160;BME280;27404;52.398;9.646;2023-03-16T06:55:49;101230.41;;;0.92;100.00
8160;BME280;27404;52.398;9.646;2023-03-16T06:58:14;101236.09;;;1.15;100.00
8160;BME280;27404;52.398;9.646;2023-03-16T07:00:39;101233.16;;;1.26;100.00
8160;BME280;27404;52.398;9.646;2023-03-16T07:03:06;101235.97;;;1.25;100.00
8160;BME280;27404;52.398;9.646;2023-03-16T07:05:31;101231.34;;;1.35;100.00
8160;BME280;27404;52.398;9.646;2023-03-16T07:07:57;101238.59;;;1.43;100.00
8160;BME280;27404;52.398;9.646;2023-03-16T07:10:22;101232.09;;;1.54;100.00
8160;BME280;27404;52.398;9.646;2023-03-16T07:12:49;101249.97;;;1.55;100.00
8160;BME280;27404;52.398;9.646;2023-03-16T07:15:15;101251.56;;;1.74;100.00
8160;BME280;27404;52.398;9.646;2023-03-16T07:17:40;101248.69;;;1.75;100.00
8160;BME280;27404;52.398;9.646;2023-03-16T07:20:07;101243.19;;;1.85;100.00
8160;BME280;27404;52.398;9.646;2023-03-16T07:22:35;101244.91;;;1.95;100.00
8160;BME280;27404;52.398;9.646;2023-03-16T07:25:01;101256.94;;;2.17;100.00
8160;BME280;27404;52.398;9.646;2023-03-16T07:27:26;101263.03;;;2.44;100.00
8160;BME280;27404;52.398;9.646;2023-03-16T07:29:53;101268.44;;;2.52;100.00
8160;BME280;27404;52.398;9.646;2023-03-16T07:32:19;101285.31;;;2.62;100.00
8160;BME280;27404;52.398;9.646;2023-03-16T07:34:44;101275.38;;;2.71;100.00
8160;BME280;27404;52.398;9.646;2023-03-16T07:37:10;101288.22;;;2.86;100.00
8160;BME280;27404;52.398;9.646;2023-03-16T07:39:36;101277.25;;;2.95;100.00
8160;BME280;27404;52.398;9.646;2023-03-16T07:42:02;101279.75;;;3.30;100.00
8160;BME280;27404;52.398;9.646;2023-03-16T07:44:28;101280.38;;;3.40;100.00
8160;BME280;27404;52.398;9.646;2023-03-16T07:46:54;101290.50;;;3.55;100.00
8160;BME280;27404;52.398;9.646;2023-03-16T07:49:20;101285.72;;;3.74;100.00
8160;BME280;27404;52.398;9.646;2023-03-16T07:51:45;101291.13;;;3.65;100.00
8160;BME280;27404;52.398;9.646;2023-03-16T07:54:11;101290.13;;;3.66;100.00
8160;BME280;27404;52.398;9.646;2023-03-16T07:56:38;101284.41;;;3.53;100.00
8160;BME280;27404;52.398;9.646;2023-03-16T07:59:03;101285.91;;;3.64;100.00
8160;BME280;27404;52.398;9.646;2023-03-16T08:01:29;101281.53;;;3.63;100.00
8160;BME280;27404;52.398;9.646;2023-03-16T08:03:54;101286.22;;;3.69;100.00
8160;BME280;27404;52.398;9.646;2023-03-16T08:06:20;101283.47;;;3.77;100.00
8160;BME280;27404;52.398;9.646;2023-03-16T08:08:46;101282.59;;;3.93;100.00
8160;BME280;27404;52.398;9.646;2023-03-16T08:11:12;101280.91;;;3.92;100.00
8160;BME280;27404;52.398;9.646;2023-03-16T08:13:37;101282.50;;;4.10;100.00
8160;BME280;27404;52.398;9.646;2023-03-16T08:16:03;101286.19;;;4.17;100.00
8160;BME280;27404;52.398;9.646;2023-03-16T08:18:30;101279.44;;;4.13;100.00
8160;BME280;27404;52.398;9.646;2023-03-16T08:20:56;101286.16;;;4.25;100.00
8160;BME280;27404;52.398;9.646;2023-03-16T08:23:23;101281.28;;;4.21;100.00
8160;BME280;27404;52.398;9.646;2023-03-16T08:25:53;101286.91;;;4.11;100.00
8160;BME280;27404;52.398;9.646;2023-03-16T08:28:19;101284.56;;;4.31;100.00
8160;BME280;27404;52.398;9.646;2023-03-16T08:30:51;101283.88;;;4.37;100.00
8160;BME280;27404;52.398;9.646;2023-03-16T08:33:18;101283.78;;;4.54;100.00
8160;BME280;27404;52.398;9.646;2023-03-16T08:35:46;101278.00;;;4.57;100.00
8160;BME280;27404;52.398;9.646;2023-03-16T08:38:12;101282.75;;;4.55;100.00
8160;BME280;27404;52.398;9.646;2023-03-16T08:40:41;101277.88;;;4.73;100.00
8160;BME280;27404;52.398;9.646;2023-03-16T08:43:13;101284.31;;;4.72;100.00
8160;BME280;27404;52.398;9.646;2023-03-16T08:45:38;101275.06;;;4.90;100.00
8160;BME280;27404;52.398;9.646;2023-03-16T08:48:04;101281.28;;;4.91;100.00
8160;BME280;27404;52.398;9.646;2023-03-16T08:50:31;101279.81;;;4.88;99.30
8160;BME280;27404;52.398;9.646;2023-03-16T08:52:57;101284.44;;;4.79;97.75
8160;BME280;27404;52.398;9.646;2023-03-16T08:55:23;101277.09;;;4.88;99.00
8160;BME280;27404;52.398;9.646;2023-03-16T08:57:49;101274.13;;;4.98;97.00
8160;BME280;27404;52.398;9.646;2023-03-16T09:00:14;101272.84;;;5.09;98.80
8160;BME280;27404;52.398;9.646;2023-03-16T09:02:41;101277.44;;;5.08;97.23
8160;BME280;27404;52.398;9.646;2023-03-16T09:05:08;101271.88;;;5.01;94.70
8160;BME280;27404;52.398;9.646;2023-03-16T09:07:36;101272.84;;;5.09;93.83
8160;BME280;27404;52.398;9.646;2023-03-16T09:10:02;101266.50;;;5.16;94.49
8160;BME280;27404;52.398;9.646;2023-03-16T09:12:30;101277.94;;;5.27;92.87
8160;BME280;27404;52.398;9.646;2023-03-16T09:14:56;101270.84;;;5.41;95.17
8160;BME280;27404;52.398;9.646;2023-03-16T09:17:21;101265.13;;;5.36;92.60
8160;BME280;27404;52.398;9.646;2023-03-16T09:19:47;101258.22;;;5.48;94.83
8160;BME280;27404;52.398;9.646;2023-03-16T09:22:12;101264.66;;;5.62;95.78
8160;BME280;27404;52.398;9.646;2023-03-16T09:24:38;101260.06;;;5.47;90.65
8160;BME280;27404;52.398;9.646;2023-03-16T09:27:04;101255.59;;;5.70;92.64
8160;BME280;27404;52.398;9.646;2023-03-16T09:29:29;101263.19;;;5.74;89.86
8160;BME280;27404;52.398;9.646;2023-03-16T09:31:56;101251.09;;;5.92;88.27
8160;BME280;27404;52.398;9.646;2023-03-16T09:34:21;101256.97;;;6.11;86.90
8160;BME280;27404;52.398;9.646;2023-03-16T09:36:47;101255.91;;;6.27;86.05
8160;BME280;27404;52.398;9.646;2023-03-16T09:39:12;101253.19;;;6.48;83.82
8160;BME280;27404;52.398;9.646;2023-03-16T09:41:56;101250.72;;;6.32;80.00
8160;BME280;27404;52.398;9.646;2023-03-16T09:45:01;101251.19;;;6.35;80.82
8160;BME280;27404;52.398;9.646;2023-03-16T09:47:31;101246.66;;;6.21;80.09
8160;BME280;27404;52.398;9.646;2023-03-16T09:50:05;101244.34;;;6.40;79.30
8160;BME280;27404;52.398;9.646;2023-03-16T09:55:36;101244.28;;;6.55;77.59
8160;BME280;27404;52.398;9.646;2023-03-16T09:58:14;101245.97;;;6.56;77.39
8160;BME280;27404;52.398;9.646;2023-03-16T10:06:41;101252.69;;;6.81;74.96
8160;BME280;27404;52.398;9.646;2023-03-16T10:11:56;101254.81;;;6.64;70.85
8160;BME280;27404;52.398;9.646;2023-03-16T10:14:29;101255.81;;;6.78;73.47
8160;BME280;27404;52.398;9.646;2023-03-16T10:22:29;101250.50;;;6.92;74.64
8160;BME280;27404;52.398;9.646;2023-03-16T10:27:38;101230.00;;;6.96;71.68
8160;BME280;27404;52.398;9.646;2023-03-16T10:30:23;101233.88;;;7.08;71.65
8160;BME280;27404;52.398;9.646;2023-03-16T10:32:50;101230.84;;;6.96;67.05
8160;BME280;27404;52.398;9.646;2023-03-16T10:35:48;101224.09;;;7.14;70.78
8160;BME280;27404;52.398;9.646;2023-03-16T10:43:43;101222.50;;;7.68;67.91
8160;BME280;27404;52.398;9.646;2023-03-16T10:46:10;101224.31;;;7.48;64.94
8160;BME280;27404;52.398;9.646;2023-03-16T10:48:37;101221.03;;;7.59;66.03
8160;BME280;27404;52.398;9.646;2023-03-16T10:51:07;101210.00;;;7.74;66.34
8160;BME280;27404;52.398;9.646;2023-03-16T10:53:35;101209.03;;;7.95;65.88
8160;BME280;27404;52.398;9.646;2023-03-16T10:56:19;101213.66;;;8.02;62.35
8160;BME280;27404;52.398;9.646;2023-03-16T10:58:47;101207.16;;;8.03;65.52
8160;BME280;27404;52.398;9.646;2023-03-16T11:01:23;101207.56;;;7.93;63.79
8160;BME280;27404;52.398;9.646;2023-03-16T11:03:52;101209.53;;;7.70;62.99
8160;BME280;27404;52.398;9.646;2023-03-16T11:06:28;101209.72;;;7.62;64.25
8160;BME280;27404;52.398;9.646;2023-03-16T11:09:13;101207.69;;;7.78;64.26
8160;BME280;27404;52.398;9.646;2023-03-16T11:11:39;101219.38;;;7.65;63.14
8160;BME280;27404;52.398;9.646;2023-03-16T11:14:11;101208.53;;;7.78;64.15
8160;BME280;27404;52.398;9.646;2023-03-16T11:17:05;101209.09;;;7.60;62.84
8160;BME280;27404;52.398;9.646;2023-03-16T11:19:43;101194.47;;;7.68;64.19
8160;BME280;27404;52.398;9.646;2023-03-16T11:22:18;101204.94;;;7.71;64.68
8160;BME280;27404;52.398;9.646;2023-03-16T11:27:42;101201.59;;;7.76;62.58
8160;BME280;27404;52.398;9.646;2023-03-16T11:30:18;101203.34;;;7.90;62.47
8160;BME280;27404;52.398;9.646;2023-03-16T11:32:49;101192.69;;;7.95;62.33
8160;BME280;27404;52.398;9.646;2023-03-16T11:35:19;101191.88;;;7.95;61.99
8160;BME280;27404;52.398;9.646;2023-03-16T11:37:56;101193.81;;;8.21;62.90
8160;BME280;27404;52.398;9.646;2023-03-16T11:40:40;101177.47;;;8.28;61.58
8160;BME280;27404;52.398;9.646;2023-03-16T11:46:21;101170.75;;;8.24;60.45
8160;BME280;27404;52.398;9.646;2023-03-16T11:48:52;101163.25;;;8.39;61.64
8160;BME280;27404;52.398;9.646;2023-03-16T11:56:49;101140.84;;;8.64;62.15
8160;BME280;27404;52.398;9.646;2023-03-16T12:02:24;101138.97;;;8.78;58.19
8160;BME280;27404;52.398;9.646;2023-03-16T12:10:28;101140.78;;;8.98;57.04
8160;BME280;27404;52.398;9.646;2023-03-16T12:13:09;101124.69;;;8.89;56.93
8160;BME280;27404;52.398;9.646;2023-03-16T12:15:44;101128.88;;;8.92;57.07
8160;BME280;27404;52.398;9.646;2023-03-16T12:20:59;101119.66;;;8.73;56.39
8160;BME280;27404;52.398;9.646;2023-03-16T12:23:42;101112.31;;;8.80;57.26
8160;BME280;27404;52.398;9.646;2023-03-16T12:26:13;101102.25;;;8.74;55.57
8160;BME280;27404;52.398;9.646;2023-03-16T12:28:40;101106.25;;;8.78;56.74
8160;BME280;27404;52.398;9.646;2023-03-16T12:31:22;101104.78;;;8.69;55.96
8160;BME280;27404;52.398;9.646;2023-03-16T12:34:00;101098.28;;;8.56;54.41
8160;BME280;27404;52.398;9.646;2023-03-16T12:42:49;101097.03;;;8.79;52.13
8160;BME280;27404;52.398;9.646;2023-03-16T12:48:07;101090.44;;;9.14;50.39
8160;BME280;27404;52.398;9.646;2023-03-16T12:50:33;101078.38;;;9.35;52.34
8160;BME280;27404;52.398;9.646;2023-03-16T12:52:59;101076.03;;;9.45;51.53
8160;BME280;27404;52.398;9.646;2023-03-16T12:55:38;101069.47;;;9.53;50.13
8160;BME280;27404;52.398;9.646;2023-03-16T12:58:06;101075.78;;;9.47;48.69
8160;BME280;27404;52.398;9.646;2023-03-16T13:00:34;101070.22;;;9.67;51.68
8160;BME280;27404;52.398;9.646;2023-03-16T13:03:02;101067.34;;;9.55;49.86
8160;BME280;27404;52.398;9.646;2023-03-16T13:05:36;101073.56;;;9.69;48.92
8160;BME280;27404;52.398;9.646;2023-03-16T13:08:16;101059.94;;;9.69;48.43
8160;BME280;27404;52.398;9.646;2023-03-16T13:10:58;101059.72;;;9.71;49.44
8160;BME280;27404;52.398;9.646;2023-03-16T13:13:24;101058.97;;;9.57;47.21
8160;BME280;27404;52.398;9.646;2023-03-16T13:16:04;101054.84;;;9.41;46.60
8160;BME280;27404;52.398;9.646;2023-03-16T13:18:37;101044.84;;;9.28;45.43
8160;BME280;27404;52.398;9.646;2023-03-16T13:21:21;101045.41;;;9.43;46.06
8160;BME280;27404;52.398;9.646;2023-03-16T13:26:46;101036.28;;;9.17;45.97
8160;BME280;27404;52.398;9.646;2023-03-16T13:29:27;101036.59;;;9.41;45.72
8160;BME280;27404;52.398;9.646;2023-03-16T13:32:07;101035.66;;;9.54;43.38
8160;BME280;27404;52.398;9.646;2023-03-16T13:34:39;101037.44;;;9.35;45.47
8160;BME280;27404;52.398;9.646;2023-03-16T13:37:13;101034.91;;;9.40;44.83
8160;BME280;27404;52.398;9.646;2023-03-16T13:39:39;101032.56;;;9.44;45.07
8160;BME280;27404;52.398;9.646;2023-03-16T13:44:33;101029.28;;;9.99;45.12
8160;BME280;27404;52.398;9.646;2023-03-16T13:47:04;101035.09;;;10.10;44.11
8160;BME280;27404;52.398;9.646;2023-03-16T13:49:30;101025.81;;;10.11;43.62
8160;BME280;27404;52.398;9.646;2023-03-16T13:51:55;101018.25;;;10.13;43.59
8160;BME280;27404;52.398;9.646;2023-03-16T13:54:28;101011.03;;;10.44;42.86
8160;BME280;27404;52.398;9.646;2023-03-16T13:56:59;101009.41;;;10.36;42.83
8160;BME280;27404;52.398;9.646;2023-03-16T13:59:28;101007.56;;;10.30;43.09
8160;BME280;27404;52.398;9.646;2023-03-16T14:01:55;101002.03;;;10.18;42.73
8160;BME280;27404;52.398;9.646;2023-03-16T14:04:24;100993.66;;;10.13;43.20
8160;BME280;27404;52.398;9.646;2023-03-16T14:06:55;100986.72;;;10.10;42.61
8160;BME280;27404;52.398;9.646;2023-03-16T14:09:24;100981.44;;;10.15;42.79
8160;BME280;27404;52.398;9.646;2023-03-16T14:11:52;100980.66;;;9.83;42.96